sensor_id;sensor_type;location;lat;lon;timestamp;P1;durP1;ratioP1;P2;durP2;ratioP2
72882;SDS011;61017;37.812;-122.286;2022-09-03T00:01:48;25.80;;;17.08;;
72882;SDS011;61017;37.812;-122.286;2022-09-03T00:03:44;26.73;;;17.45;;
72882;SDS011;61017;37.812;-122.286;2022-09-03T00:05:25;24.70;;;16.90;;
72882;SDS011;61017;37.812;-122.286;2022-09-03T00:07:25;25.58;;;17.42;;
72882;SDS011;61017;37.812;-122.286;2022-09-03T00:09:15;26.58;;;17.92;;
72882;SDS011;61017;37.812;-122.286;2022-09-03T00:11:03;25.85;;;17.42;;
72882;SDS011;61017;37.812;-122.286;2022-09-03T00:12:43;25.55;;;16.92;;
72882;SDS011;61017;37.812;-122.286;2022-09-03T00:14:22;25.40;;;16.42;;
72882;SDS011;61017;37.812;-122.286;2022-09-03T00:15:58;26.58;;;17.20;;
72882;SDS011;61017;37.812;-122.286;2022-09-03T00:19:26;25.05;;;16.58;;
72882;SDS011;61017;37.812;-122.286;2022-09-03T00:21:03;24.45;;;16.52;;
72882;SDS011;61017;37.812;-122.286;2022-09-03T00:22:50;25.25;;;15.60;;
72882;SDS011;61017;37.812;-122.286;2022-09-03T00:24:27;22.83;;;16.45;;
72882;SDS011;61017;37.812;-122.286;2022-09-03T00:26:15;25.20;;;16.30;;
72882;SDS011;61017;37.812;-122.286;2022-09-03T00:27:56;24.48;;;16.40;;
72882;SDS011;61017;37.812;-122.286;2022-09-03T00:29:35;23.42;;;15.82;;
72882;SDS011;61017;37.812;-122.286;2022-09-03T00:31:30;23.80;;;15.77;;
72882;SDS011;61017;37.812;-122.286;2022-09-03T00:33:13;22.98;;;15.77;;
72882;SDS011;61017;37.812;-122.286;2022-09-03T00:34:53;23.35;;;16.38;;
72882;SDS011;61017;37.812;-122.286;2022-09-03T00:36:33;23.50;;;15.60;;
72882;SDS011;61017;37.812;-122.286;2022-09-03T00:38:12;23.13;;;15.38;;
72882;SDS011;61017;37.812;-122.286;2022-09-03T00:39:44;21.10;;;15.27;;
72882;SDS011;61017;37.812;-122.286;2022-09-03T00:44:58;21.58;;;14.68;;
72882;SDS011;61017;37.812;-122.286;2022-09-03T00:56:29;22.42;;;14.93;;
72882;SDS011;61017;37.812;-122.286;2022-09-03T00:58:27;23.10;;;14.73;;
72882;SDS011;61017;37.812;-122.286;2022-09-03T01:03:49;20.58;;;13.95;;
72882;SDS011;61017;37.812;-122.286;2022-09-03T01:11:02;21.23;;;13.95;;
72882;SDS011;61017;37.812;-122.286;2022-09-03T01:14:34;20.55;;;13.57;;
72882;SDS011;61017;37.812;-122.286;2022-09-03T01:30:11;21.60;;;14.20;;
72882;SDS011;61017;37.812;-122.286;2022-09-03T01:32:06;20.27;;;13.52;;
72882;SDS011;61017;37.812;-122.286;2022-09-03T01:37:20;24.08;;;15.63;;
72882;SDS011;61017;37.812;-122.286;2022-09-03T01:39:05;24.48;;;15.50;;
72882;SDS011;61017;37.812;-122.286;2022-09-03T01:45:09;24.50;;;15.55;;
72882;SDS011;61017;37.812;-122.286;2022-09-03T01:47:00;23.92;;;15.70;;
72882;SDS011;61017;37.812;-122.286;2022-09-03T01:53:04;23.95;;;15.60;;
72882;SDS011;61017;37.812;-122.286;2022-09-03T01:58:48;26.30;;;15.13;;
72882;SDS011;61017;37.812;-122.286;2022-09-03T02:00:55;25.75;;;15.63;;
72882;SDS011;61017;37.812;-122.286;2022-09-03T02:02:31;23.48;;;15.95;;
72882;SDS011;61017;37.812;-122.286;2022-09-03T02:04:21;23.27;;;15.57;;
72882;SDS011;61017;37.812;-122.286;2022-09-03T02:05:56;21.83;;;15.20;;
72882;SDS011;61017;37.812;-122.286;2022-09-03T02:07:32;21.38;;;14.93;;
72882;SDS011;61017;37.812;-122.286;2022-09-03T02:09:06;22.67;;;15.85;;
72882;SDS011;61017;37.812;-122.286;2022-09-03T02:10:49;23.15;;;15.40;;
72882;SDS011;61017;37.812;-122.286;2022-09-03T02:12:24;20.48;;;14.80;;
72882;SDS011;61017;37.812;-122.286;2022-09-03T02:13:58;24.63;;;14.85;;
72882;SDS011;61017;37.812;-122.286;2022-09-03T02:17:08;22.38;;;14.55;;
72882;SDS011;61017;37.812;-122.286;2022-09-03T02:18:43;24.98;;;14.43;;
72882;SDS011;61017;37.812;-122.286;2022-09-03T02:20:19;22.83;;;13.85;;
72882;SDS011;61017;37.812;-122.286;2022-09-03T02:21:56;25.65;;;14.63;;
72882;SDS011;61017;37.812;-122.286;2022-09-03T02:23:28;26.98;;;13.57;;
72882;SDS011;61017;37.812;-122.286;2022-09-03T02:25:00;27.38;;;15.10;;
72882;SDS011;61017;37.812;-122.286;2022-09-03T02:26:32;22.80;;;14.32;;
72882;SDS011;61017;37.812;-122.286;2022-09-03T02:28:05;22.77;;;13.57;;
72882;SDS011;61017;37.812;-122.286;2022-09-03T02:29:38;22.98;;;13.02;;
72882;SDS011;61017;37.812;-122.286;2022-09-03T02:31:10;19.88;;;12.57;;
72882;SDS011;61017;37.812;-122.286;2022-09-03T02:32:42;22.87;;;13.30;;
72882;SDS011;61017;37.812;-122.286;2022-09-03T02:34:14;19.13;;;12.55;;
72882;SDS011;61017;37.812;-122.286;2022-09-03T02:35:46;21.33;;;12.43;;
72882;SDS011;61017;37.812;-122.286;2022-09-03T02:37:18;21.67;;;12.90;;
72882;SDS011;61017;37.812;-122.286;2022-09-03T02:38:50;21.63;;;12.47;;
72882;SDS011;61017;37.812;-122.286;2022-09-03T02:40:22;21.40;;;12.43;;
72882;SDS011;61017;37.812;-122.286;2022-09-03T02:41:54;21.88;;;12.65;;
72882;SDS011;61017;37.812;-122.286;2022-09-03T02:43:31;21.35;;;12.80;;
72882;SDS011;61017;37.812;-122.286;2022-09-03T02:45:12;20.52;;;12.15;;
72882;SDS011;61017;37.812;-122.286;2022-09-03T02:46:59;20.05;;;12.55;;
72882;SDS011;61017;37.812;-122.286;2022-09-03T02:48:32;18.55;;;12.18;;
72882;SDS011;61017;37.812;-122.286;2022-09-03T02:50:05;17.08;;;11.57;;
72882;SDS011;61017;37.812;-122.286;2022-09-03T02:51:38;20.55;;;12.05;;
72882;SDS011;61017;37.812;-122.286;2022-09-03T02:53:12;18.92;;;12.05;;
72882;SDS011;61017;37.812;-122.286;2022-09-03T02:54:45;21.58;;;12.73;;
72882;SDS011;61017;37.812;-122.286;2022-09-03T02:56:25;19.08;;;12.40;;
72882;SDS011;61017;37.812;-122.286;2022-09-03T02:58:02;17.77;;;11.68;;
72882;SDS011;61017;37.812;-122.286;2022-09-03T02:59:36;20.95;;;11.77;;
72882;SDS011;61017;37.812;-122.286;2022-09-03T03:01:09;19.48;;;11.98;;
72882;SDS011;61017;37.812;-122.286;2022-09-03T03:02:41;19.95;;;12.43;;
72882;SDS011;61017;37.812;-122.286;2022-09-03T03:04:13;19.08;;;11.98;;
72882;SDS011;61017;37.812;-122.286;2022-09-03T03:07:17;20.83;;;11.35;;
72882;SDS011;61017;37.812;-122.286;2022-09-03T03:08:54;20.00;;;12.27;;
72882;SDS011;61017;37.812;-122.286;2022-09-03T03:10:26;17.92;;;11.43;;
72882;SDS011;61017;37.812;-122.286;2022-09-03T03:12:00;18.60;;;11.55;;
72882;SDS011;61017;37.812;-122.286;2022-09-03T03:13:32;20.20;;;12.20;;
72882;SDS011;61017;37.812;-122.286;2022-09-03T03:15:05;20.08;;;11.65;;
72882;SDS011;61017;37.812;-122.286;2022-09-03T03:16:37;19.35;;;11.27;;
72882;SDS011;61017;37.812;-122.286;2022-09-03T03:18:09;17.10;;;10.67;;
72882;SDS011;61017;37.812;-122.286;2022-09-03T03:19:44;19.13;;;11.45;;
72882;SDS011;61017;37.812;-122.286;2022-09-03T03:21:17;17.95;;;11.57;;
72882;SDS011;61017;37.812;-122.286;2022-09-03T03:22:49;18.08;;;11.43;;
72882;SDS011;61017;37.812;-122.286;2022-09-03T03:24:22;16.10;;;10.88;;
72882;SDS011;61017;37.812;-122.286;2022-09-03T03:25:59;18.63;;;11.20;;
72882;SDS011;61017;37.812;-122.286;2022-09-03T03:27:32;18.60;;;11.50;;
72882;SDS011;61017;37.812;-122.286;2022-09-03T03:29:13;18.42;;;10.82;;
72882;SDS011;61017;37.812;-122.286;2022-09-03T03:30:49;16.65;;;10.73;;
72882;SDS011;61017;37.812;-122.286;2022-09-03T03:32:22;16.23;;;10.93;;
72882;SDS011;61017;37.812;-122.286;2022-09-03T03:33:55;16.40;;;10.90;;
72882;SDS011;61017;37.812;-122.286;2022-09-03T03:35:32;17.95;;;10.93;;
72882;SDS011;61017;37.812;-122.286;2022-09-03T03:37:04;18.02;;;10.93;;
72882;SDS011;61017;37.812;-122.286;2022-09-03T03:38:36;20.47;;;11.27;;
72882;SDS011;61017;37.812;-122.286;2022-09-03T03:40:08;17.50;;;11.23;;
72882;SDS011;61017;37.812;-122.286;2022-09-03T03:41:40;16.95;;;10.93;;
72882;SDS011;61017;37.812;-122.286;2022-09-03T03:43:12;17.25;;;10.88;;
72882;SDS011;61017;37.812;-122.286;2022-09-03T03:44:44;18.67;;;11.00;;
72882;SDS011;61017;37.812;-122.286;2022-09-03T03:46:16;18.10;;;11.00;;
72882;SDS011;61017;37.812;-122.286;2022-09-03T03:47:48;21.42;;;11.02;;
72882;SDS011;61017;37.812;-122.286;2022-09-03T03:49:20;16.90;;;10.63;;
72882;SDS011;61017;37.812;-122.286;2022-09-03T03:50:52;15.67;;;9.87;;
72882;SDS011;61017;37.812;-122.286;2022-09-03T03:52:24;16.48;;;11.00;;
72882;SDS011;61017;37.812;-122.286;2022-09-03T03:53:57;20.23;;;10.52;;
72882;SDS011;61017;37.812;-122.286;2022-09-03T03:55:29;18.42;;;11.07;;
72882;SDS011;61017;37.812;-122.286;2022-09-03T03:57:01;21.70;;;11.00;;
72882;SDS011;61017;37.812;-122.286;2022-09-03T03:58:33;19.30;;;10.70;;
72882;SDS011;61017;37.812;-122.286;2022-09-03T04:01:37;32.25;;;11.65;;
72882;SDS011;61017;37.812;-122.286;2022-09-03T04:03:09;23.27;;;11.57;;
72882;SDS011;61017;37.812;-122.286;2022-09-03T04:04:41;22.47;;;11.40;;
72882;SDS011;61017;37.812;-122.286;2022-09-03T09:10:33;23.98;;;7.40;;
72882;SDS011;61017;37.812;-122.286;2022-09-03T09:12:28;19.10;;;6.95;;
72882;SDS011;61017;37.812;-122.286;2022-09-03T09:18:09;15.32;;;6.40;;
72882;SDS011;61017;37.812;-122.286;2022-09-03T09:24:03;19.75;;;6.70;;
72882;SDS011;61017;37.812;-122.286;2022-09-03T09:25:49;16.02;;;7.00;;
72882;SDS011;61017;37.812;-122.286;2022-09-03T09:27:24;16.52;;;7.28;;
72882;SDS011;61017;37.812;-122.286;2022-09-03T09:29:06;21.65;;;7.13;;
72882;SDS011;61017;37.812;-122.286;2022-09-03T09:30:40;17.40;;;6.53;;
72882;SDS011;61017;37.812;-122.286;2022-09-03T09:32:15;16.33;;;6.97;;
72882;SDS011;61017;37.812;-122.286;2022-09-03T09:33:49;18.45;;;7.28;;
72882;SDS011;61017;37.812;-122.286;2022-09-03T09:36:54;16.08;;;6.90;;
72882;SDS011;61017;37.812;-122.286;2022-09-03T09:40:02;15.32;;;6.97;;
72882;SDS011;61017;37.812;-122.286;2022-09-03T09:41:35;13.23;;;6.68;;
72882;SDS011;61017;37.812;-122.286;2022-09-03T09:43:08;14.07;;;7.03;;
72882;SDS011;61017;37.812;-122.286;2022-09-03T09:44:49;14.05;;;6.55;;
72882;SDS011;61017;37.812;-122.286;2022-09-03T09:46:23;30.38;;;7.78;;
72882;SDS011;61017;37.812;-122.286;2022-09-03T09:50:14;27.23;;;6.97;;
72882;SDS011;61017;37.812;-122.286;2022-09-03T09:51:58;24.83;;;7.20;;
72882;SDS011;61017;37.812;-122.286;2022-09-03T09:53:44;16.40;;;6.80;;
72882;SDS011;61017;37.812;-122.286;2022-09-03T09:55:17;17.70;;;6.63;;
72882;SDS011;61017;37.812;-122.286;2022-09-03T09:56:57;17.17;;;6.88;;
72882;SDS011;61017;37.812;-122.286;2022-09-03T09:58:33;19.40;;;6.53;;
72882;SDS011;61017;37.812;-122.286;2022-09-03T10:01:44;19.60;;;6.43;;
72882;SDS011;61017;37.812;-122.286;2022-09-03T10:03:16;22.75;;;6.78;;
72882;SDS011;61017;37.812;-122.286;2022-09-03T10:07:12;17.98;;;6.80;;
72882;SDS011;61017;37.812;-122.286;2022-09-03T10:09:14;18.42;;;6.45;;
72882;SDS011;61017;37.812;-122.286;2022-09-03T10:11:08;15.50;;;6.82;;
72882;SDS011;61017;37.812;-122.286;2022-09-03T10:13:09;14.10;;;6.40;;
72882;SDS011;61017;37.812;-122.286;2022-09-03T10:19:13;13.30;;;6.60;;
72882;SDS011;61017;37.812;-122.286;2022-09-03T10:25:14;15.20;;;6.32;;
72882;SDS011;61017;37.812;-122.286;2022-09-03T10:27:08;14.70;;;6.88;;
72882;SDS011;61017;37.812;-122.286;2022-09-03T10:29:05;13.60;;;6.75;;
72882;SDS011;61017;37.812;-122.286;2022-09-03T10:33:09;13.25;;;5.50;;
72882;SDS011;61017;37.812;-122.286;2022-09-03T10:35:30;13.63;;;5.30;;
72882;SDS011;61017;37.812;-122.286;2022-09-03T10:37:33;12.82;;;5.82;;
72882;SDS011;61017;37.812;-122.286;2022-09-03T10:40:05;11.60;;;5.68;;
72882;SDS011;61017;37.812;-122.286;2022-09-03T10:44:26;13.27;;;5.85;;
72882;SDS011;61017;37.812;-122.286;2022-09-03T10:46:55;14.60;;;6.40;;
72882;SDS011;61017;37.812;-122.286;2022-09-03T10:49:13;12.32;;;6.20;;
72882;SDS011;61017;37.812;-122.286;2022-09-03T10:51:17;13.90;;;5.93;;
72882;SDS011;61017;37.812;-122.286;2022-09-03T10:57:50;13.60;;;6.60;;
72882;SDS011;61017;37.812;-122.286;2022-09-03T11:00:08;11.40;;;6.07;;
72882;SDS011;61017;37.812;-122.286;2022-09-03T11:06:40;12.85;;;6.28;;
72882;SDS011;61017;37.812;-122.286;2022-09-03T11:08:43;10.90;;;5.55;;
72882;SDS011;61017;37.812;-122.286;2022-09-03T11:10:51;16.35;;;6.38;;
72882;SDS011;61017;37.812;-122.286;2022-09-03T11:13:01;11.75;;;6.32;;
72882;SDS011;61017;37.812;-122.286;2022-09-03T11:15:10;13.30;;;6.47;;
72882;SDS011;61017;37.812;-122.286;2022-09-03T11:17:28;12.57;;;5.95;;
72882;SDS011;61017;37.812;-122.286;2022-09-03T11:19:32;12.43;;;5.90;;
72882;SDS011;61017;37.812;-122.286;2022-09-03T11:21:29;10.93;;;5.85;;
72882;SDS011;61017;37.812;-122.286;2022-09-03T11:23:23;13.15;;;6.05;;
72882;SDS011;61017;37.812;-122.286;2022-09-03T11:25:18;12.57;;;5.88;;
72882;SDS011;61017;37.812;-122.286;2022-09-03T11:31:38;13.63;;;5.78;;
72882;SDS011;61017;37.812;-122.286;2022-09-03T11:33:40;11.65;;;6.22;;
72882;SDS011;61017;37.812;-122.286;2022-09-03T11:35:57;12.23;;;5.70;;
72882;SDS011;61017;37.812;-122.286;2022-09-03T11:37:57;13.82;;;5.80;;
72882;SDS011;61017;37.812;-122.286;2022-09-03T11:39:54;13.48;;;6.10;;
72882;SDS011;61017;37.812;-122.286;2022-09-03T11:41:57;13.05;;;5.97;;
72882;SDS011;61017;37.812;-122.286;2022-09-03T11:43:56;9.93;;;5.68;;
72882;SDS011;61017;37.812;-122.286;2022-09-03T11:46:00;13.45;;;5.70;;
72882;SDS011;61017;37.812;-122.286;2022-09-03T11:48:40;11.10;;;6.10;;
72882;SDS011;61017;37.812;-122.286;2022-09-03T11:50:38;12.18;;;6.35;;
72882;SDS011;61017;37.812;-122.286;2022-09-03T11:52:30;13.65;;;6.18;;
72882;SDS011;61017;37.812;-122.286;2022-09-03T11:54:24;12.38;;;5.63;;
72882;SDS011;61017;37.812;-122.286;2022-09-03T11:56:18;13.05;;;6.10;;
72882;SDS011;61017;37.812;-122.286;2022-09-03T11:58:22;12.13;;;6.03;;
72882;SDS011;61017;37.812;-122.286;2022-09-03T12:00:17;12.63;;;5.50;;
72882;SDS011;61017;37.812;-122.286;2022-09-03T12:02:17;17.42;;;6.28;;
72882;SDS011;61017;37.812;-122.286;2022-09-03T12:04:24;12.57;;;5.97;;
72882;SDS011;61017;37.812;-122.286;2022-09-03T12:21:27;14.55;;;6.20;;
72882;SDS011;61017;37.812;-122.286;2022-09-03T12:25:35;12.48;;;5.80;;
72882;SDS011;61017;37.812;-122.286;2022-09-03T12:27:37;11.43;;;5.82;;
72882;SDS011;61017;37.812;-122.286;2022-09-03T12:29:33;11.43;;;5.93;;
72882;SDS011;61017;37.812;-122.286;2022-09-03T12:31:26;12.77;;;5.97;;
72882;SDS011;61017;37.812;-122.286;2022-09-03T12:33:21;12.18;;;5.80;;
72882;SDS011;61017;37.812;-122.286;2022-09-03T12:35:20;14.80;;;6.20;;
72882;SDS011;61017;37.812;-122.286;2022-09-03T12:37:21;13.25;;;5.68;;
72882;SDS011;61017;37.812;-122.286;2022-09-03T12:39:16;12.80;;;5.40;;
72882;SDS011;61017;37.812;-122.286;2022-09-03T12:41:22;11.60;;;5.78;;
72882;SDS011;61017;37.812;-122.286;2022-09-03T12:43:17;12.32;;;5.18;;
72882;SDS011;61017;37.812;-122.286;2022-09-03T12:45:09;11.63;;;5.50;;
72882;SDS011;61017;37.812;-122.286;2022-09-03T12:49:13;13.25;;;5.53;;
72882;SDS011;61017;37.812;-122.286;2022-09-03T12:51:05;17.88;;;5.57;;
72882;SDS011;61017;37.812;-122.286;2022-09-03T12:52:58;13.77;;;5.70;;
72882;SDS011;61017;37.812;-122.286;2022-09-03T12:54:58;14.30;;;5.80;;
72882;SDS011;61017;37.812;-122.286;2022-09-03T12:56:57;11.63;;;5.00;;
72882;SDS011;61017;37.812;-122.286;2022-09-03T12:58:54;18.55;;;5.70;;
72882;SDS011;61017;37.812;-122.286;2022-09-03T13:00:54;12.88;;;5.70;;
72882;SDS011;61017;37.812;-122.286;2022-09-03T13:03:41;13.30;;;5.78;;
72882;SDS011;61017;37.812;-122.286;2022-09-03T13:05:14;14.00;;;5.30;;
72882;SDS011;61017;37.812;-122.286;2022-09-03T13:07:22;13.05;;;5.43;;
72882;SDS011;61017;37.812;-122.286;2022-09-03T13:09:23;12.70;;;5.43;;
72882;SDS011;61017;37.812;-122.286;2022-09-03T13:11:20;12.00;;;5.30;;
72882;SDS011;61017;37.812;-122.286;2022-09-03T13:13:24;11.18;;;5.30;;
72882;SDS011;61017;37.812;-122.286;2022-09-03T13:15:22;15.07;;;5.75;;
72882;SDS011;61017;37.812;-122.286;2022-09-03T13:17:36;12.75;;;5.03;;
72882;SDS011;61017;37.812;-122.286;2022-09-03T13:22:14;12.15;;;5.00;;
72882;SDS011;61017;37.812;-122.286;2022-09-03T13:24:35;11.20;;;5.03;;
72882;SDS011;61017;37.812;-122.286;2022-09-03T13:27:04;9.93;;;4.90;;
72882;SDS011;61017;37.812;-122.286;2022-09-03T13:31:28;10.18;;;5.22;;
72882;SDS011;61017;37.812;-122.286;2022-09-03T13:33:43;9.93;;;5.07;;
72882;SDS011;61017;37.812;-122.286;2022-09-03T13:36:01;11.00;;;5.22;;
72882;SDS011;61017;37.812;-122.286;2022-09-03T13:40:02;12.02;;;5.05;;
72882;SDS011;61017;37.812;-122.286;2022-09-03T13:42:10;9.50;;;5.00;;
72882;SDS011;61017;37.812;-122.286;2022-09-03T13:55:53;13.25;;;5.25;;
72882;SDS011;61017;37.812;-122.286;2022-09-03T13:57:50;9.32;;;4.60;;
72882;SDS011;61017;37.812;-122.286;2022-09-03T13:59:59;13.13;;;5.35;;
72882;SDS011;61017;37.812;-122.286;2022-09-03T14:02:15;9.38;;;4.65;;
72882;SDS011;61017;37.812;-122.286;2022-09-03T14:04:13;11.02;;;4.60;;
72882;SDS011;61017;37.812;-122.286;2022-09-03T14:06:17;10.68;;;5.10;;
72882;SDS011;61017;37.812;-122.286;2022-09-03T14:12:45;8.57;;;4.47;;
72882;SDS011;61017;37.812;-122.286;2022-09-03T14:15:02;11.43;;;4.90;;
72882;SDS011;61017;37.812;-122.286;2022-09-03T14:17:23;8.82;;;4.78;;
72882;SDS011;61017;37.812;-122.286;2022-09-03T14:26:36;10.52;;;4.40;;
72882;SDS011;61017;37.812;-122.286;2022-09-03T14:28:40;8.80;;;4.20;;
72882;SDS011;61017;37.812;-122.286;2022-09-03T14:31:27;9.27;;;4.45;;
72882;SDS011;61017;37.812;-122.286;2022-09-03T14:44:04;11.13;;;4.80;;
72882;SDS011;61017;37.812;-122.286;2022-09-03T14:53:25;9.85;;;4.40;;
72882;SDS011;61017;37.812;-122.286;2022-09-03T14:57:54;10.05;;;4.40;;
72882;SDS011;61017;37.812;-122.286;2022-09-03T15:08:53;10.23;;;4.50;;
72882;SDS011;61017;37.812;-122.286;2022-09-03T15:10:54;11.52;;;4.45;;
72882;SDS011;61017;37.812;-122.286;2022-09-03T15:13:05;10.57;;;4.50;;
72882;SDS011;61017;37.812;-122.286;2022-09-03T15:15:09;11.02;;;4.85;;
72882;SDS011;61017;37.812;-122.286;2022-09-03T15:21:59;10.40;;;4.63;;
72882;SDS011;61017;37.812;-122.286;2022-09-03T15:24:38;9.15;;;4.45;;
72882;SDS011;61017;37.812;-122.286;2022-09-03T15:30:49;9.68;;;4.18;;
72882;SDS011;61017;37.812;-122.286;2022-09-03T15:35:06;9.70;;;4.55;;
72882;SDS011;61017;37.812;-122.286;2022-09-03T15:37:31;10.25;;;4.03;;
72882;SDS011;61017;37.812;-122.286;2022-09-03T15:39:30;10.00;;;4.38;;
72882;SDS011;61017;37.812;-122.286;2022-09-03T15:43:47;10.95;;;4.45;;
72882;SDS011;61017;37.812;-122.286;2022-09-03T15:49:51;10.00;;;4.22;;
72882;SDS011;61017;37.812;-122.286;2022-09-03T15:52:02;9.30;;;4.15;;
72882;SDS011;61017;37.812;-122.286;2022-09-03T15:56:24;9.15;;;4.22;;
72882;SDS011;61017;37.812;-122.286;2022-09-03T15:58:30;8.82;;;3.63;;
72882;SDS011;61017;37.812;-122.286;2022-09-03T16:00:26;8.15;;;4.00;;
72882;SDS011;61017;37.812;-122.286;2022-09-03T16:02:29;10.25;;;4.38;;
72882;SDS011;61017;37.812;-122.286;2022-09-03T16:05:27;8.95;;;4.10;;
72882;SDS011;61017;37.812;-122.286;2022-09-03T16:06:57;9.45;;;4.15;;
72882;SDS011;61017;37.812;-122.286;2022-09-03T16:16:05;7.65;;;3.95;;
72882;SDS011;61017;37.812;-122.286;2022-09-03T16:20:26;9.75;;;4.40;;
72882;SDS011;61017;37.812;-122.286;2022-09-03T16:22:26;8.95;;;4.43;;
72882;SDS011;61017;37.812;-122.286;2022-09-03T16:26:22;7.28;;;4.55;;
72882;SDS011;61017;37.812;-122.286;2022-09-03T16:32:36;10.70;;;4.35;;
72882;SDS011;61017;37.812;-122.286;2022-09-03T16:34:40;10.65;;;4.25;;
72882;SDS011;61017;37.812;-122.286;2022-09-03T16:41:28;10.25;;;4.78;;
72882;SDS011;61017;37.812;-122.286;2022-09-03T16:55:23;7.40;;;4.47;;
72882;SDS011;61017;37.812;-122.286;2022-09-03T17:04:37;8.60;;;4.30;;
72882;SDS011;61017;37.812;-122.286;2022-09-03T17:08:56;10.20;;;4.68;;
72882;SDS011;61017;37.812;-122.286;2022-09-03T17:15:54;7.40;;;4.10;;
72882;SDS011;61017;37.812;-122.286;2022-09-03T17:22:04;7.85;;;3.97;;
72882;SDS011;61017;37.812;-122.286;2022-09-03T17:24:20;10.20;;;4.40;;
72882;SDS011;61017;37.812;-122.286;2022-09-03T17:26:51;8.65;;;4.72;;
72882;SDS011;61017;37.812;-122.286;2022-09-03T17:31:33;11.18;;;4.68;;
72882;SDS011;61017;37.812;-122.286;2022-09-03T17:36:04;9.85;;;4.80;;
72882;SDS011;61017;37.812;-122.286;2022-09-03T17:46:26;9.45;;;4.60;;
72882;SDS011;61017;37.812;-122.286;2022-09-03T17:48:35;9.10;;;4.15;;
72882;SDS011;61017;37.812;-122.286;2022-09-03T17:50:43;8.80;;;4.35;;
72882;SDS011;61017;37.812;-122.286;2022-09-03T17:53:08;9.90;;;4.75;;
72882;SDS011;61017;37.812;-122.286;2022-09-03T17:55:14;6.97;;;4.20;;
72882;SDS011;61017;37.812;-122.286;2022-09-03T17:57:25;9.57;;;4.82;;
72882;SDS011;61017;37.812;-122.286;2022-09-03T18:01:36;8.38;;;4.55;;
72882;SDS011;61017;37.812;-122.286;2022-09-03T18:03:54;7.57;;;4.43;;
72882;SDS011;61017;37.812;-122.286;2022-09-03T18:05:55;8.20;;;4.60;;
72882;SDS011;61017;37.812;-122.286;2022-09-03T18:12:14;7.70;;;4.63;;
72882;SDS011;61017;37.812;-122.286;2022-09-03T18:14:23;7.97;;;4.72;;
72882;SDS011;61017;37.812;-122.286;2022-09-03T18:16:34;9.32;;;5.10;;
72882;SDS011;61017;37.812;-122.286;2022-09-03T18:18:49;10.38;;;5.05;;
72882;SDS011;61017;37.812;-122.286;2022-09-03T18:20:51;7.35;;;4.72;;
72882;SDS011;61017;37.812;-122.286;2022-09-03T18:25:37;9.73;;;5.00;;
72882;SDS011;61017;37.812;-122.286;2022-09-03T18:28:04;10.05;;;5.28;;
72882;SDS011;61017;37.812;-122.286;2022-09-03T18:30:19;9.82;;;5.53;;
72882;SDS011;61017;37.812;-122.286;2022-09-03T18:32:29;9.70;;;5.10;;
72882;SDS011;61017;37.812;-122.286;2022-09-03T18:34:39;11.48;;;5.45;;
72882;SDS011;61017;37.812;-122.286;2022-09-03T18:36:50;14.93;;;5.40;;
72882;SDS011;61017;37.812;-122.286;2022-09-03T18:46:18;10.60;;;6.07;;
72882;SDS011;61017;37.812;-122.286;2022-09-03T18:49:02;13.50;;;6.60;;
72882;SDS011;61017;37.812;-122.286;2022-09-03T18:56:33;12.07;;;6.72;;
72882;SDS011;61017;37.812;-122.286;2022-09-03T18:59:14;12.30;;;6.70;;
72882;SDS011;61017;37.812;-122.286;2022-09-03T19:01:34;14.43;;;6.50;;
72882;SDS011;61017;37.812;-122.286;2022-09-03T19:06:51;18.40;;;7.22;;
72882;SDS011;61017;37.812;-122.286;2022-09-03T19:11:54;14.27;;;7.80;;
72882;SDS011;61017;37.812;-122.286;2022-09-03T19:14:10;16.58;;;7.32;;
72882;SDS011;61017;37.812;-122.286;2022-09-03T19:21:28;14.27;;;7.60;;
72882;SDS011;61017;37.812;-122.286;2022-09-03T19:23:52;13.43;;;8.07;;
72882;SDS011;61017;37.812;-122.286;2022-09-03T19:26:20;14.35;;;7.97;;
72882;SDS011;61017;37.812;-122.286;2022-09-03T19:28:53;14.82;;;7.30;;
72882;SDS011;61017;37.812;-122.286;2022-09-03T19:39:39;13.80;;;8.30;;
72882;SDS011;61017;37.812;-122.286;2022-09-03T19:42:09;15.05;;;7.57;;
72882;SDS011;61017;37.812;-122.286;2022-09-03T19:47:06;14.05;;;7.50;;
72882;SDS011;61017;37.812;-122.286;2022-09-03T19:49:24;15.68;;;7.80;;
72882;SDS011;61017;37.812;-122.286;2022-09-03T19:53:59;16.00;;;7.70;;
72882;SDS011;61017;37.812;-122.286;2022-09-03T19:56:22;15.77;;;8.48;;
72882;SDS011;61017;37.812;-122.286;2022-09-03T19:58:37;14.10;;;8.20;;
72882;SDS011;61017;37.812;-122.286;2022-09-03T20:00:55;13.32;;;8.00;;
72882;SDS011;61017;37.812;-122.286;2022-09-03T20:03:05;15.50;;;8.68;;
72882;SDS011;61017;37.812;-122.286;2022-09-03T20:05:17;14.43;;;7.78;;
72882;SDS011;61017;37.812;-122.286;2022-09-03T20:07:29;15.48;;;8.10;;
72882;SDS011;61017;37.812;-122.286;2022-09-03T20:09:42;15.02;;;7.82;;
72882;SDS011;61017;37.812;-122.286;2022-09-03T20:11:55;15.88;;;8.15;;
72882;SDS011;61017;37.812;-122.286;2022-09-03T20:13:57;15.82;;;8.40;;
72882;SDS011;61017;37.812;-122.286;2022-09-03T20:16:12;16.77;;;8.38;;
72882;SDS011;61017;37.812;-122.286;2022-09-03T20:22:40;15.35;;;7.80;;
72882;SDS011;61017;37.812;-122.286;2022-09-03T20:25:05;12.93;;;8.02;;
72882;SDS011;61017;37.812;-122.286;2022-09-03T20:27:20;14.00;;;8.05;;
72882;SDS011;61017;37.812;-122.286;2022-09-03T20:31:54;14.40;;;8.48;;
72882;SDS011;61017;37.812;-122.286;2022-09-03T20:34:06;13.60;;;7.75;;
72882;SDS011;61017;37.812;-122.286;2022-09-03T20:44:46;16.75;;;8.68;;
72882;SDS011;61017;37.812;-122.286;2022-09-03T20:46:48;14.73;;;8.18;;
72882;SDS011;61017;37.812;-122.286;2022-09-03T20:55:27;18.60;;;7.85;;
72882;SDS011;61017;37.812;-122.286;2022-09-03T20:59:56;15.10;;;7.93;;
72882;SDS011;61017;37.812;-122.286;2022-09-03T21:01:57;12.75;;;7.55;;
72882;SDS011;61017;37.812;-122.286;2022-09-03T21:10:51;18.08;;;7.93;;
72882;SDS011;61017;37.812;-122.286;2022-09-03T21:13:20;14.65;;;8.43;;
72882;SDS011;61017;37.812;-122.286;2022-09-03T21:22:02;13.25;;;7.97;;
72882;SDS011;61017;37.812;-122.286;2022-09-03T21:26:16;15.38;;;7.68;;
72882;SDS011;61017;37.812;-122.286;2022-09-03T21:28:21;14.02;;;7.93;;
72882;SDS011;61017;37.812;-122.286;2022-09-03T21:30:19;14.52;;;7.60;;
72882;SDS011;61017;37.812;-122.286;2022-09-03T21:32:22;13.30;;;7.68;;
72882;SDS011;61017;37.812;-122.286;2022-09-03T21:34:30;12.45;;;7.72;;
72882;SDS011;61017;37.812;-122.286;2022-09-03T21:36:45;12.18;;;7.50;;
72882;SDS011;61017;37.812;-122.286;2022-09-03T21:38:39;12.38;;;7.32;;
72882;SDS011;61017;37.812;-122.286;2022-09-03T21:40:36;13.23;;;7.10;;
72882;SDS011;61017;37.812;-122.286;2022-09-03T21:42:47;12.63;;;6.93;;
72882;SDS011;61017;37.812;-122.286;2022-09-03T21:45:11;12.25;;;7.20;;
72882;SDS011;61017;37.812;-122.286;2022-09-03T21:47:25;10.82;;;7.32;;
72882;SDS011;61017;37.812;-122.286;2022-09-03T21:49:53;10.27;;;6.40;;
72882;SDS011;61017;37.812;-122.286;2022-09-03T21:52:09;11.35;;;6.70;;